Bantry, North Dakota
Current Conditions -  °F | °C
As of 2:35 AM on Thursday 27 Nov 2014 (Local Time) from KRUG Reporting Station
Clear Clear  
Wind Chill: -29°   Ceiling: Unl
Heat Index: -17°   Visibility: 10mi
Dew Point: -20°   Wind: 5mph
Humidity: 84%   Direction: 160°SSE
Pressure: 30.44"   Gusts: NA
Location:  48.5°N, 100.61°W
Report Text: KRUG 270835Z AUTO 16004KT 10SM CLR M27/M29 A3044 RMK AO2
Loading
Personal Weather Stations






























Interactive Weather Map New forecast layout! Learn more

10-Day Weather Forecast

Advertisements
Track Severe Weather on mobile